Time;durP1;ratioP1;P1;durP2;ratioP2;P2;SDS_P1;SDS_P2;PMS_P1;PMS_P2;Temp;Humidity;BMP_temperature;BMP_pressure;BME280_temperature;BME280_humidity;BME280_pressure;Samples;Min_cycle;Max_cycle;Signal;HPM_P1;HPM_P2
2023/07/14 04:00:17;;;;;;;3.00;2.80;;;14.50;99.90;;;;;;6120370;22;21583;31
2023/07/14 04:02:45;;;;;;;2.00;2.00;;;14.60;99.90;;;;;;4986819;28;20945;-68
2023/07/14 04:05:13;;;;;;;3.47;3.30;;;14.60;99.90;;;;;;4992840;28;20470;-69
2023/07/14 04:07:41;;;;;;;3.07;2.87;;;14.60;99.90;;;;;;4992590;28;20467;-69
2023/07/14 04:10:09;;;;;;;2.67;2.47;;;14.60;99.90;;;;;;4992537;28;20467;-69
2023/07/14 04:12:36;;;;;;;3.10;2.87;;;14.70;99.90;;;;;;4973435;28;20484;-69
2023/07/14 04:15:04;;;;;;;3.07;2.87;;;14.70;99.90;;;;;;4973228;28;20464;-69
2023/07/14 04:17:32;;;;;;;3.93;3.63;;;14.70;99.90;;;;;;4973679;28;20463;-69
2023/07/14 04:19:59;;;;;;;2.53;2.43;;;14.70;99.90;;;;;;4973626;28;20471;-68
2023/07/14 04:22:26;;;;;;;2.37;2.27;;;14.80;99.90;;;;;;4973591;28;20483;-69
2023/07/14 04:24:53;;;;;;;1.90;1.90;;;14.90;99.90;;;;;;4973051;28;20471;-68
2023/07/14 04:27:20;;;;;;;3.40;3.20;;;14.90;99.90;;;;;;4973062;28;20524;-68
2023/07/14 04:29:46;;;;;;;3.27;3.03;;;15.00;99.90;;;;;;4973043;28;20478;-68
2023/07/14 04:32:13;;;;;;;3.50;3.20;;;15.30;99.90;;;;;;4972959;28;20522;-68
2023/07/14 04:34:42;;;;;;;4.60;4.20;;;15.80;99.90;;;;;;4972740;28;20491;-69
2023/07/14 04:37:09;;;;;;;3.13;3.00;;;16.40;99.90;;;;;;4972591;28;20978;-69
2023/07/14 04:39:36;;;;;;;3.40;3.20;;;16.90;99.90;;;;;;4973216;28;20483;-68
2023/07/14 04:42:04;;;;;;;2.90;2.70;;;17.50;99.90;;;;;;4972734;28;20583;-68
2023/07/14 04:44:30;;;;;;;3.00;2.80;;;17.90;99.90;;;;;;4966867;28;20545;-68
2023/07/14 04:46:58;;;;;;;2.70;2.50;;;18.30;99.90;;;;;;4972538;28;20495;-66
2023/07/14 04:49:25;;;;;;;1.70;1.70;;;18.50;99.90;;;;;;4972311;28;20521;-67
2023/07/14 04:51:53;;;;;;;2.50;2.40;;;18.40;99.90;;;;;;4972191;28;20828;-67
2023/07/14 04:54:23;;;;;;;2.57;2.40;;;18.20;99.90;;;;;;4972459;28;20541;-67
2023/07/14 04:56:51;;;;;;;2.67;2.67;;;18.10;99.90;;;;;;4972650;28;20512;-68
2023/07/14 04:59:18;;;;;;;2.90;2.60;;;18.40;99.90;;;;;;4973070;28;20474;-67
2023/07/14 05:01:45;;;;;;;2.30;2.20;;;18.60;99.90;;;;;;4972692;28;20555;-67
2023/07/14 05:04:12;;;;;;;2.30;2.20;;;18.80;99.90;;;;;;4972154;28;20467;-67
2023/07/14 05:06:39;;;;;;;3.30;3.10;;;19.10;99.90;;;;;;4972007;28;20490;-67
2023/07/14 05:09:08;;;;;;;3.13;2.93;;;19.20;99.90;;;;;;4972452;28;20463;-67
2023/07/14 05:11:34;;;;;;;2.77;2.60;;;19.40;99.90;;;;;;4972561;28;21182;-67
2023/07/14 05:14:04;;;;;;;2.40;2.40;;;19.60;99.90;;;;;;4972413;28;20554;-66
2023/07/14 05:16:30;;;;;;;2.60;2.50;;;19.70;99.90;;;;;;4972118;28;20855;-68
2023/07/14 05:18:57;;;;;;;3.00;2.90;;;20.10;99.90;;;;;;4971901;28;20481;-68
2023/07/14 05:21:24;;;;;;;2.53;2.33;;;20.40;99.90;;;;;;4970812;28;20497;-67
2023/07/14 05:23:50;;;;;;;2.57;2.47;;;20.70;99.90;;;;;;4971873;28;20466;-71
2023/07/14 05:26:19;;;;;;;2.27;2.27;;;20.90;99.90;;;;;;4972048;28;20852;-68
2023/07/14 05:28:46;;;;;;;3.27;3.07;;;21.20;99.90;;;;;;4972168;28;20460;-67
2023/07/14 05:31:12;;;;;;;2.53;2.50;;;21.50;99.90;;;;;;4972098;28;20485;-67
2023/07/14 05:33:39;;;;;;;3.10;3.00;;;21.50;99.90;;;;;;4971780;28;20638;-67
2023/07/14 05:36:06;;;;;;;3.20;3.00;;;21.50;99.90;;;;;;4971426;28;20469;-66
2023/07/14 05:38:33;;;;;;;2.27;2.10;;;21.40;99.90;;;;;;4972070;28;20467;-68
2023/07/14 05:41:03;;;;;;;2.70;2.70;;;21.60;99.90;;;;;;4971990;28;20488;-67
2023/07/14 05:43:32;;;;;;;2.70;2.60;;;21.70;99.90;;;;;;4972237;28;20838;-67
2023/07/14 05:45:58;;;;;;;2.60;2.50;;;22.00;99.90;;;;;;4971572;28;20495;-67
2023/07/14 05:48:26;;;;;;;2.93;2.80;;;21.80;99.90;;;;;;4971506;28;20465;-68
2023/07/14 05:50:52;;;;;;;3.13;3.03;;;21.70;99.90;;;;;;4971223;28;20486;-68
2023/07/14 05:53:19;;;;;;;2.50;2.40;;;21.80;99.90;;;;;;4972144;28;20820;-69
2023/07/14 05:55:46;;;;;;;2.30;2.30;;;21.50;99.90;;;;;;4971596;28;20973;-67
2023/07/14 05:58:13;;;;;;;2.63;2.53;;;21.40;99.90;;;;;;4971997;28;20477;-67
2023/07/14 06:00:42;;;;;;;2.57;2.47;;;21.40;99.90;;;;;;4971841;28;20558;-67
2023/07/14 06:03:12;;;;;;;2.87;2.77;;;21.30;99.90;;;;;;4971190;28;20568;-67
2023/07/14 06:05:39;;;;;;;2.43;2.33;;;21.70;99.90;;;;;;4971369;28;20472;-67
2023/07/14 06:08:06;;;;;;;2.67;2.57;;;22.10;99.90;;;;;;4971070;28;20489;-67
2023/07/14 06:10:33;;;;;;;2.90;2.70;;;22.40;99.90;;;;;;4971661;28;20540;-67
2023/07/14 06:13:00;;;;;;;2.83;2.70;;;22.60;99.90;;;;;;4971582;28;20470;-68
2023/07/14 06:15:27;;;;;;;3.33;2.83;;;22.70;99.90;;;;;;4971222;28;20467;-67
2023/07/14 06:17:56;;;;;;;3.20;3.10;;;22.90;99.90;;;;;;4970494;28;20467;-67
2023/07/14 06:20:23;;;;;;;2.80;2.60;;;23.20;99.90;;;;;;4971406;28;20520;-68
2023/07/14 06:22:50;;;;;;;2.30;2.20;;;23.50;99.90;;;;;;4970875;28;20479;-69
2023/07/14 06:25:17;;;;;;;2.63;2.53;;;24.00;99.90;;;;;;4971019;28;20467;-67
2023/07/14 06:27:44;;;;;;;2.20;2.20;;;24.20;99.90;;;;;;4970948;28;20492;-67
2023/07/14 06:30:11;;;;;;;3.00;2.90;;;24.10;99.90;;;;;;4971220;28;20468;-67
2023/07/14 06:32:38;;;;;;;1.73;1.73;;;24.50;99.90;;;;;;4972842;28;20463;-68
2023/07/14 06:35:08;;;;;;;3.00;2.70;;;24.70;99.90;;;;;;4975492;28;20558;-68
2023/07/14 06:37:35;;;;;;;2.50;2.50;;;24.70;99.90;;;;;;4974543;28;20839;-68
2023/07/14 06:40:02;;;;;;;1.90;1.90;;;24.50;99.90;;;;;;4975398;28;20464;-68
2023/07/14 06:42:28;;;;;;;2.03;2.03;;;24.60;99.90;;;;;;4974999;28;20574;-70
2023/07/14 06:44:55;;;;;;;2.17;2.10;;;24.90;99.90;;;;;;4974386;28;20474;-68
2023/07/14 06:47:22;;;;;;;2.17;2.07;;;25.00;99.90;;;;;;4974632;28;20498;-68
2023/07/14 06:49:49;;;;;;;1.93;1.83;;;25.10;99.90;;;;;;4974432;28;20464;-68
2023/07/14 06:52:17;;;;;;;3.90;2.43;;;25.20;99.90;;;;;;4974490;28;20498;-69
2023/07/14 06:54:46;;;;;;;1.87;1.87;;;25.40;99.90;;;;;;4974594;28;20464;-67
2023/07/14 06:57:13;;;;;;;1.20;1.20;;;25.60;99.90;;;;;;4974682;28;20460;-67
2023/07/14 06:59:39;;;;;;;2.03;2.03;;;25.90;99.90;;;;;;4974592;28;20472;-67
2023/07/14 07:02:06;;;;;;;1.57;1.50;;;26.10;99.90;;;;;;4974552;28;20502;-67
2023/07/14 07:04:33;;;;;;;1.20;1.20;;;26.60;99.90;;;;;;4973848;28;20464;-67
2023/07/14 07:07:00;;;;;;;0.93;0.93;;;26.60;99.90;;;;;;4973413;28;20991;-67
2023/07/14 07:09:28;;;;;;;1.90;1.90;;;26.60;99.90;;;;;;4974071;28;20474;-67
2023/07/14 07:11:55;;;;;;;1.60;1.60;;;26.60;99.90;;;;;;4973950;28;20545;-67
2023/07/14 07:14:22;;;;;;;1.20;1.20;;;26.40;99.90;;;;;;4973378;28;20928;-67
2023/07/14 07:16:49;;;;;;;1.57;1.57;;;26.40;99.90;;;;;;4973878;28;20463;-67
2023/07/14 07:19:16;;;;;;;1.43;1.43;;;26.70;99.90;;;;;;4973610;28;20863;-67
2023/07/14 07:21:43;;;;;;;1.77;1.77;;;26.60;99.90;;;;;;4973414;28;20499;-67
2023/07/14 07:24:10;;;;;;;3.30;1.83;;;26.50;99.90;;;;;;4973567;28;20475;-67
2023/07/14 07:26:38;;;;;;;1.50;1.50;;;26.60;99.90;;;;;;4973261;28;20488;-67
2023/07/14 07:29:05;;;;;;;1.33;1.33;;;26.70;99.90;;;;;;4973674;28;20486;-67
2023/07/14 07:31:31;;;;;;;1.83;1.83;;;26.60;99.90;;;;;;4973509;28;20632;-67
2023/07/14 07:33:58;;;;;;;1.60;1.50;;;26.60;99.90;;;;;;4972763;28;20475;-67
2023/07/14 07:36:27;;;;;;;1.80;1.80;;;26.90;99.90;;;;;;4973285;28;20569;-66
2023/07/14 07:38:54;;;;;;;1.43;1.43;;;26.80;99.90;;;;;;4973680;28;20471;-67
2023/07/14 07:41:23;;;;;;;1.30;1.30;;;26.70;99.90;;;;;;4974995;28;20595;-67
2023/07/14 07:43:52;;;;;;;1.57;1.57;;;27.20;99.90;;;;;;4976063;28;20929;-67
2023/07/14 07:46:21;;;;;;;1.77;1.70;;;27.40;99.90;;;;;;4966447;28;20479;-67
2023/07/14 07:48:47;;;;;;;1.57;1.57;;;27.10;99.90;;;;;;4973076;28;20472;-67
2023/07/14 07:51:14;;;;;;;1.40;1.40;;;26.90;99.90;;;;;;4972764;28;20492;-67
2023/07/14 07:53:41;;;;;;;4.83;1.97;;;27.20;99.90;;;;;;4973182;28;20467;-67
2023/07/14 07:56:10;;;;;;;1.20;1.20;;;27.30;99.90;;;;;;4973068;28;20475;-67
2023/07/14 07:58:36;;;;;;;1.17;1.17;;;27.20;99.90;;;;;;4973035;28;20530;-67
2023/07/14 08:01:06;;;;;;;1.30;1.30;;;27.00;99.90;;;;;;4973207;28;20503;-67
2023/07/14 08:03:34;;;;;;;1.10;1.10;;;27.00;99.90;;;;;;4972629;28;20476;-67
2023/07/14 08:06:02;;;;;;;1.63;1.63;;;26.50;99.90;;;;;;4972279;28;20515;-66
2023/07/14 08:08:30;;;;;;;1.13;1.13;;;26.20;99.90;;;;;;4972940;28;20496;-67
2023/07/14 08:10:57;;;;;;;2.10;1.27;;;25.90;99.90;;;;;;4973058;28;20826;-67
2023/07/14 08:13:24;;;;;;;1.40;1.40;;;25.80;99.90;;;;;;4973120;28;20464;-67
2023/07/14 08:15:52;;;;;;;1.13;1.13;;;25.90;99.90;;;;;;4973666;28;20503;-67
2023/07/14 08:18:21;;;;;;;1.20;1.20;;;25.60;99.90;;;;;;4972621;28;20464;-67
2023/07/14 08:20:49;;;;;;;1.10;1.10;;;25.60;99.90;;;;;;4973262;28;20948;-67
2023/07/14 08:23:17;;;;;;;2.00;2.00;;;25.70;99.90;;;;;;4972766;28;20463;-67
2023/07/14 08:25:43;;;;;;;1.20;1.20;;;25.90;99.90;;;;;;4972892;28;20550;-67
2023/07/14 08:28:11;;;;;;;1.67;1.67;;;26.10;99.90;;;;;;4973214;28;20494;-67
2023/07/14 08:30:37;;;;;;;2.20;1.67;;;26.30;99.90;;;;;;4972999;28;20488;-67
2023/07/14 08:33:04;;;;;;;1.47;1.43;;;25.90;99.90;;;;;;4972380;28;20463;-67
2023/07/14 08:35:32;;;;;;;1.50;1.50;;;25.50;99.90;;;;;;4972431;28;20464;-67
2023/07/14 08:37:59;;;;;;;1.17;1.17;;;25.30;99.90;;;;;;4972327;28;20763;-67
2023/07/14 08:40:31;;;;;;;2.30;1.37;;;25.20;99.90;;;;;;4972636;28;20464;-67
2023/07/14 08:43:20;;;;;;;1.80;1.70;;;25.00;99.90;;;;;;4967498;28;20468;-67
2023/07/14 08:45:54;;;;;;;1.97;1.97;;;24.90;99.90;;;;;;4972292;28;20921;-67
2023/07/14 08:48:29;;;;;;;1.43;1.43;;;24.80;99.90;;;;;;4972271;28;20489;-67
2023/07/14 08:51:01;;;;;;;1.43;1.30;;;24.70;99.90;;;;;;4972119;28;20484;-67
2023/07/14 08:53:30;;;;;;;1.70;1.60;;;24.90;99.90;;;;;;4972472;28;20484;-67
2023/07/14 08:56:02;;;;;;;1.77;1.10;;;24.80;99.90;;;;;;4972411;28;20467;-67
2023/07/14 08:58:32;;;;;;;1.20;1.20;;;24.80;99.90;;;;;;4972159;28;20475;-67
2023/07/14 09:01:09;;;;;;;2.37;1.23;;;24.60;99.90;;;;;;4971925;28;20556;-67
2023/07/14 09:03:42;;;;;;;1.80;1.80;;;24.80;99.90;;;;;;4971972;28;20605;-67
2023/07/14 09:06:29;;;;;;;1.47;1.43;;;24.50;99.90;;;;;;4971987;28;20834;-67
2023/07/14 09:08:56;;;;;;;1.00;1.00;;;24.50;99.90;;;;;;4971830;28;20492;-67
2023/07/14 09:11:39;;;;;;;1.20;1.20;;;24.50;99.90;;;;;;4972081;28;20567;-67
2023/07/14 09:14:20;;;;;;;1.50;1.03;;;24.60;99.90;;;;;;4972014;28;20469;-68
2023/07/14 09:16:56;;;;;;;1.60;1.50;;;24.60;99.90;;;;;;4971907;28;20477;-68
2023/07/14 09:19:39;;;;;;;1.10;1.10;;;24.70;99.90;;;;;;4972493;28;20470;-68
2023/07/14 09:22:13;;;;;;;0.97;0.97;;;24.70;99.90;;;;;;4971635;28;20497;-67
2023/07/14 09:24:48;;;;;;;1.23;1.23;;;24.50;99.90;;;;;;4972330;28;20472;-67
2023/07/14 09:27:20;;;;;;;0.90;0.90;;;24.30;99.90;;;;;;4971779;28;20484;-67
2023/07/14 09:29:48;;;;;;;1.20;1.20;;;24.30;99.90;;;;;;4971345;28;20966;-67
2023/07/14 09:32:23;;;;;;;1.30;1.30;;;24.50;99.90;;;;;;4971406;28;20989;-67
2023/07/14 09:34:56;;;;;;;1.70;1.70;;;24.60;99.90;;;;;;4970972;28;20560;-68
2023/07/14 09:37:28;;;;;;;1.67;1.60;;;24.50;99.90;;;;;;4970963;28;20900;-68
2023/07/14 09:40:15;;;;;;;1.33;1.33;;;24.40;99.90;;;;;;4971554;28;20807;-68
2023/07/14 09:42:43;;;;;;;1.20;1.20;;;24.30;99.90;;;;;;4971137;28;20463;-68
2023/07/14 09:45:16;;;;;;;1.50;1.50;;;24.30;99.90;;;;;;4970920;28;20554;-69
2023/07/14 09:47:44;;;;;;;1.40;1.37;;;24.10;99.90;;;;;;4970657;28;20490;-69
2023/07/14 09:50:14;;;;;;;1.07;1.07;;;24.10;99.90;;;;;;4971331;28;20472;-68
2023/07/14 09:52:53;;;;;;;0.90;0.90;;;24.30;99.90;;;;;;4970337;28;20548;-68
2023/07/14 09:55:20;;;;;;;1.77;1.67;;;24.50;99.90;;;;;;4971068;28;20472;-68
2023/07/14 09:57:50;;;;;;;1.50;1.50;;;24.40;99.90;;;;;;4970920;28;20463;-68
2023/07/14 10:00:20;;;;;;;1.27;1.27;;;24.60;99.90;;;;;;4970870;28;20467;-68
2023/07/14 10:02:51;;;;;;;1.37;1.37;;;24.80;99.90;;;;;;4970363;28;20578;-68
2023/07/14 10:05:34;;;;;;;2.00;2.00;;;24.60;99.90;;;;;;4970860;28;20472;-67
2023/07/14 10:08:04;;;;;;;1.40;1.40;;;24.20;99.90;;;;;;4969970;28;21066;-67
2023/07/14 10:10:42;;;;;;;1.70;1.60;;;24.10;99.90;;;;;;4970912;28;20487;-67
2023/07/14 10:13:18;;;;;;;1.30;1.30;;;24.30;99.90;;;;;;4970727;28;20600;-68
2023/07/14 10:15:53;;;;;;;1.50;1.50;;;24.40;99.90;;;;;;4970851;28;20938;-67
2023/07/14 10:18:20;;;;;;;1.70;1.70;;;24.50;99.90;;;;;;4970204;28;20829;-67
2023/07/14 10:21:00;;;;;;;1.40;1.40;;;24.50;99.90;;;;;;4971386;28;20498;-67
2023/07/14 10:23:29;;;;;;;1.97;1.43;;;24.40;99.90;;;;;;4971461;28;20474;-68
2023/07/14 10:25:56;;;;;;;1.60;1.50;;;24.40;99.90;;;;;;4970495;28;20767;-68
2023/07/14 10:28:27;;;;;;;1.67;1.63;;;24.40;99.90;;;;;;4970804;28;20600;-67
2023/07/14 10:31:01;;;;;;;1.30;1.23;;;24.40;99.90;;;;;;4970595;28;20525;-67
2023/07/14 10:33:38;;;;;;;1.60;1.50;;;24.10;99.90;;;;;;4970454;28;20477;-67
2023/07/14 10:36:10;;;;;;;1.10;1.10;;;24.20;99.90;;;;;;4970334;28;20480;-67
2023/07/14 10:38:42;;;;;;;1.30;1.30;;;24.20;99.90;;;;;;4970890;28;20474;-67
2023/07/14 10:41:11;;;;;;;1.43;1.30;;;24.10;99.90;;;;;;4971039;28;20577;-68
2023/07/14 10:43:43;;;;;;;1.17;1.17;;;24.10;99.90;;;;;;4970694;28;20470;-68
2023/07/14 10:46:14;;;;;;;1.57;1.40;;;24.40;99.90;;;;;;4962123;28;20471;-68
2023/07/14 10:48:47;;;;;;;1.00;1.00;;;24.70;99.90;;;;;;4969797;28;21013;-68
2023/07/14 10:51:26;;;;;;;1.47;1.40;;;24.80;99.90;;;;;;4970209;28;20492;-68
2023/07/14 10:53:58;;;;;;;2.40;1.93;;;24.90;99.90;;;;;;4970595;28;20471;-68
2023/07/14 10:56:29;;;;;;;0.90;0.90;;;25.00;99.90;;;;;;4970357;28;20478;-68
2023/07/14 10:59:02;;;;;;;1.13;1.13;;;24.90;99.90;;;;;;4971051;28;20463;-68
2023/07/14 11:01:36;;;;;;;1.13;1.07;;;24.70;99.90;;;;;;4970196;28;20494;-68
2023/07/14 11:04:15;;;;;;;1.33;1.33;;;24.60;99.90;;;;;;4969679;28;20519;-68
2023/07/14 11:06:46;;;;;;;0.97;0.97;;;24.60;99.90;;;;;;4969816;28;20486;-68
2023/07/14 11:09:15;;;;;;;1.03;1.03;;;24.60;99.90;;;;;;4970441;28;20581;-68
2023/07/14 11:11:50;;;;;;;1.10;1.10;;;24.50;99.90;;;;;;4970413;28;20995;-71
2023/07/14 11:14:29;;;;;;;2.20;1.33;;;24.50;99.90;;;;;;4970474;28;20466;-70
2023/07/14 11:17:06;;;;;;;1.00;1.00;;;24.60;99.90;;;;;;4970494;28;20846;-70
2023/07/14 11:19:46;;;;;;;1.50;1.50;;;24.90;99.90;;;;;;4972004;28;20465;-68
2023/07/14 11:22:21;;;;;;;2.70;1.33;;;25.20;99.90;;;;;;4973881;28;20500;-68
2023/07/14 11:25:06;;;;;;;1.33;1.33;;;25.40;99.90;;;;;;4973699;28;20465;-68
2023/07/14 11:27:36;;;;;;;1.10;1.10;;;25.60;99.90;;;;;;4973706;28;20766;-67
2023/07/14 11:30:10;;;;;;;4.87;1.40;;;25.60;99.90;;;;;;4973988;28;20464;-68
2023/07/14 11:32:44;;;;;;;0.80;0.80;;;25.60;99.90;;;;;;4973166;28;20485;-68
2023/07/14 11:35:17;;;;;;;1.53;1.53;;;25.70;99.90;;;;;;4974136;28;20468;-67
2023/07/14 11:37:53;;;;;;;2.13;2.03;;;25.50;99.90;;;;;;4973412;28;20963;-69
2023/07/14 11:40:25;;;;;;;2.23;1.20;;;25.20;99.90;;;;;;4973680;28;20496;-69
2023/07/14 11:42:56;;;;;;;1.63;1.53;;;25.30;99.90;;;;;;4973850;28;20487;-68
2023/07/14 11:45:28;;;;;;;0.87;0.87;;;25.40;99.90;;;;;;4973549;28;20472;-69
2023/07/14 11:47:58;;;;;;;1.63;1.63;;;25.40;99.90;;;;;;4972813;28;20845;-69
2023/07/14 11:50:28;;;;;;;1.10;1.10;;;25.60;99.90;;;;;;4973424;28;20484;-69
2023/07/14 11:53:00;;;;;;;1.20;1.20;;;25.60;99.90;;;;;;4972736;28;20558;-69
2023/07/14 11:55:31;;;;;;;1.00;1.00;;;25.50;99.90;;;;;;4972787;28;20975;-69
2023/07/14 11:58:18;;;;;;;1.70;1.70;;;25.30;99.90;;;;;;4972876;28;20481;-69
2023/07/14 12:00:48;;;;;;;1.40;1.40;;;25.30;99.90;;;;;;4973077;28;20982;-69
2023/07/14 12:03:28;;;;;;;1.20;1.20;;;25.30;99.90;;;;;;4972590;28;20473;-69
2023/07/14 12:06:25;;;;;;;1.07;1.07;;;25.20;99.90;;;;;;4972190;28;20465;-69
2023/07/14 12:09:11;;;;;;;1.27;1.27;;;25.20;99.90;;;;;;4972892;28;20500;-67
2023/07/14 12:11:54;;;;;;;1.60;1.60;;;25.20;99.90;;;;;;4972801;28;20488;-68
2023/07/14 12:14:48;;;;;;;1.10;1.10;;;25.40;99.90;;;;;;4972899;28;20933;-68
2023/07/14 12:17:45;;;;;;;1.10;1.10;;;25.50;99.90;;;;;;4968593;28;20577;-68
2023/07/14 12:20:37;;;;;;;1.40;1.40;;;25.60;99.90;;;;;;4972824;28;20813;-68
2023/07/14 12:23:24;;;;;;;1.10;1.10;;;25.80;99.90;;;;;;4970320;28;20900;-68
2023/07/14 12:26:00;;;;;;;1.33;1.33;;;25.90;99.90;;;;;;4972444;28;20975;-68
2023/07/14 12:28:33;;;;;;;1.77;1.77;;;25.80;99.90;;;;;;4972467;28;21014;-68
2023/07/14 12:31:03;;;;;;;1.43;1.43;;;26.00;99.90;;;;;;4971853;28;20566;-68
2023/07/14 12:33:30;;;;;;;1.33;1.33;;;26.10;99.90;;;;;;4972399;28;20471;-69
2023/07/14 12:35:57;;;;;;;1.20;1.20;;;26.40;99.90;;;;;;4971944;28;20467;-68
2023/07/14 12:38:25;;;;;;;1.20;1.10;;;26.50;99.90;;;;;;4972584;28;20472;-68
2023/07/14 12:40:54;;;;;;;1.50;1.50;;;26.10;99.90;;;;;;4972390;28;20513;-68
2023/07/14 12:43:33;;;;;;;0.90;0.90;;;26.00;99.90;;;;;;4971951;28;20473;-68
2023/07/14 12:46:03;;;;;;;5.10;1.60;;;25.70;99.90;;;;;;4972128;28;20465;-68
2023/07/14 12:48:32;;;;;;;1.07;1.07;;;25.60;99.90;;;;;;4971846;28;20489;-68
2023/07/14 12:51:00;;;;;;;1.40;1.40;;;25.70;99.90;;;;;;4972326;28;20858;-68
2023/07/14 12:53:31;;;;;;;1.30;1.30;;;25.80;99.90;;;;;;4972322;28;20467;-68
2023/07/14 12:56:04;;;;;;;1.60;1.50;;;25.80;99.90;;;;;;4972065;28;20464;-68
2023/07/14 12:58:32;;;;;;;2.00;1.20;;;25.80;99.90;;;;;;4972168;28;20468;-68
2023/07/14 13:00:59;;;;;;;1.73;1.10;;;25.90;99.90;;;;;;4972076;28;20707;-68
2023/07/14 13:03:26;;;;;;;1.30;1.20;;;25.70;99.90;;;;;;4971344;28;20519;-68
2023/07/14 13:05:53;;;;;;;2.00;1.90;;;25.60;99.90;;;;;;4971524;28;20469;-68
2023/07/14 13:08:21;;;;;;;1.27;1.27;;;25.80;99.90;;;;;;4972011;28;20821;-68
2023/07/14 13:10:50;;;;;;;1.60;1.60;;;26.00;99.90;;;;;;4972217;28;20838;-68
2023/07/14 13:13:20;;;;;;;1.20;1.20;;;26.20;99.90;;;;;;4972513;28;20536;-68
2023/07/14 13:15:50;;;;;;;1.10;1.10;;;26.20;99.90;;;;;;4972154;28;20517;-68
2023/07/14 13:21:36;;;;;;;1.30;1.30;;;26.00;99.90;;;;;;4959772;28;21033;-68
2023/07/14 13:24:15;;;;;;;1.47;1.47;;;26.00;99.90;;;;;;4972014;28;20466;-68
2023/07/14 13:26:53;;;;;;;1.30;1.30;;;26.10;99.90;;;;;;4971999;28;20840;-68
2023/07/14 13:29:23;;;;;;;1.97;1.80;;;26.20;99.90;;;;;;4971543;28;20529;-68
2023/07/14 13:31:55;;;;;;;1.40;1.40;;;26.20;99.90;;;;;;4971795;28;20603;-68
2023/07/14 13:34:24;;;;;;;1.73;1.63;;;25.80;99.90;;;;;;4971412;28;20538;-68
2023/07/14 13:36:52;;;;;;;1.10;1.10;;;25.70;99.90;;;;;;4971445;28;20470;-68
2023/07/14 13:39:30;;;;;;;1.43;1.40;;;25.80;99.90;;;;;;4972069;28;20471;-68
2023/07/14 13:41:59;;;;;;;1.07;1.07;;;25.60;99.90;;;;;;4971169;28;20518;-68
2023/07/14 13:44:45;;;;;;;1.23;1.23;;;25.70;99.90;;;;;;4971450;28;20492;-69
2023/07/14 13:47:17;;;;;;;1.30;1.30;;;26.00;99.90;;;;;;4971387;28;20467;-68
2023/07/14 13:49:44;;;;;;;1.20;1.20;;;26.10;99.90;;;;;;4971176;28;21035;-68
2023/07/14 13:52:14;;;;;;;1.13;1.13;;;26.20;99.90;;;;;;4971105;28;20519;-68
2023/07/14 13:54:42;;;;;;;2.40;1.50;;;26.20;99.90;;;;;;4971555;28;20471;-69
2023/07/14 13:57:13;;;;;;;1.23;1.13;;;26.10;99.90;;;;;;4971577;28;20488;-68
2023/07/14 13:59:42;;;;;;;1.60;1.60;;;26.00;99.90;;;;;;4971414;28;20495;-68
2023/07/14 14:02:23;;;;;;;1.30;1.30;;;25.80;99.90;;;;;;4971258;28;20498;-69
2023/07/14 14:04:50;;;;;;;1.30;1.30;;;25.80;99.90;;;;;;4970959;28;20462;-68
2023/07/14 14:07:16;;;;;;;3.90;1.77;;;25.80;99.90;;;;;;4971109;28;20475;-68
2023/07/14 14:09:43;;;;;;;1.40;1.40;;;25.80;99.90;;;;;;4971629;28;20530;-68
2023/07/14 14:12:10;;;;;;;1.50;1.50;;;25.90;99.90;;;;;;4971646;28;20495;-68
2023/07/14 14:14:38;;;;;;;1.10;1.10;;;26.00;99.90;;;;;;4970796;28;20838;-68
2023/07/14 14:17:46;;;;;;;1.20;1.20;;;26.40;99.90;;;;;;4971278;28;20465;-68
2023/07/14 14:20:17;;;;;;;1.30;1.30;;;26.60;99.90;;;;;;4971009;28;20461;-68
2023/07/14 14:22:45;;;;;;;1.80;1.70;;;26.80;99.90;;;;;;4970345;28;20549;-68
2023/07/14 14:25:16;;;;;;;1.00;1.00;;;26.70;99.90;;;;;;4970699;28;20573;-68
2023/07/14 14:27:42;;;;;;;1.20;1.20;;;26.60;99.90;;;;;;4970610;28;20476;-68
2023/07/14 14:30:10;;;;;;;1.20;1.20;;;26.50;99.90;;;;;;4970804;28;20493;-68
2023/07/14 14:32:38;;;;;;;1.50;1.50;;;26.40;99.90;;;;;;4970164;28;20490;-68
2023/07/14 14:35:25;;;;;;;1.20;1.20;;;26.30;99.90;;;;;;4970771;28;20457;-68
2023/07/14 14:37:52;;;;;;;1.60;1.53;;;26.20;99.90;;;;;;4969691;28;20817;-68
2023/07/14 14:40:19;;;;;;;1.63;1.63;;;26.40;99.90;;;;;;4970682;28;20460;-68
2023/07/14 14:42:46;;;;;;;1.50;1.50;;;26.40;99.90;;;;;;4970133;28;20481;-68
2023/07/14 14:45:20;;;;;;;2.07;1.90;;;26.60;99.90;;;;;;4970559;28;20462;-68
2023/07/14 14:47:48;;;;;;;2.67;1.30;;;26.80;99.90;;;;;;4970087;28;20465;-68
2023/07/14 14:50:15;;;;;;;2.00;1.83;;;26.70;99.90;;;;;;4970364;28;20546;-68
2023/07/14 14:52:44;;;;;;;1.00;1.00;;;26.90;99.90;;;;;;4970133;28;20877;-68
2023/07/14 14:55:13;;;;;;;1.50;1.40;;;27.00;99.90;;;;;;4973959;28;20831;-68
2023/07/14 14:57:41;;;;;;;1.40;1.40;;;26.90;99.90;;;;;;4974049;28;21019;-68
2023/07/14 15:00:18;;;;;;;1.20;1.20;;;26.80;99.90;;;;;;4974275;28;20476;-68
2023/07/14 15:02:46;;;;;;;1.93;1.40;;;26.90;99.90;;;;;;4973851;28;20457;-67
2023/07/14 15:05:15;;;;;;;1.50;1.50;;;26.80;99.90;;;;;;4974154;28;20468;-67
2023/07/14 15:07:42;;;;;;;1.10;1.10;;;26.90;99.90;;;;;;4973896;28;20470;-67
2023/07/14 15:10:10;;;;;;;1.60;1.50;;;26.80;99.90;;;;;;4973854;28;20503;-67
2023/07/14 15:12:37;;;;;;;1.27;1.27;;;26.80;99.90;;;;;;4973496;28;20838;-69
2023/07/14 15:15:05;;;;;;;1.03;1.03;;;26.80;99.90;;;;;;4973860;28;20528;-69
2023/07/14 15:17:33;;;;;;;2.83;1.00;;;26.70;99.90;;;;;;4973808;28;20465;-69
2023/07/14 15:20:00;;;;;;;1.10;1.10;;;26.60;99.90;;;;;;4973976;28;20976;-69
2023/07/14 15:22:30;;;;;;;1.10;1.10;;;26.70;99.90;;;;;;4973618;28;20488;-69
2023/07/14 15:24:56;;;;;;;0.90;0.90;;;26.80;99.90;;;;;;4973895;28;20460;-68
2023/07/14 15:27:30;;;;;;;1.40;1.27;;;26.80;99.90;;;;;;4973652;28;20544;-68
2023/07/14 15:30:02;;;;;;;0.77;0.77;;;26.70;99.90;;;;;;4973836;28;20849;-69
2023/07/14 15:32:30;;;;;;;2.20;2.17;;;26.90;99.90;;;;;;4974027;28;20944;-68
2023/07/14 15:34:57;;;;;;;1.40;1.40;;;27.00;99.90;;;;;;4973709;28;20467;-69
2023/07/14 15:37:23;;;;;;;1.30;1.30;;;27.10;99.90;;;;;;4973050;28;20461;-68
2023/07/14 15:39:52;;;;;;;2.70;1.23;;;27.20;99.90;;;;;;4973712;28;20463;-68
2023/07/14 15:42:19;;;;;;;1.63;1.53;;;27.10;99.90;;;;;;4972953;28;20569;-68
2023/07/14 15:44:46;;;;;;;1.57;1.57;;;27.10;99.90;;;;;;4972867;28;20459;-68
2023/07/14 15:47:15;;;;;;;1.03;1.03;;;27.00;99.90;;;;;;4973226;28;20466;-68
2023/07/14 15:49:42;;;;;;;1.63;1.63;;;26.90;99.90;;;;;;4972874;28;20549;-69
2023/07/14 15:52:16;;;;;;;1.17;1.17;;;26.60;99.90;;;;;;4972904;28;20568;-68
2023/07/14 15:54:43;;;;;;;1.30;1.30;;;26.40;99.90;;;;;;4972944;28;20529;-68
2023/07/14 15:57:14;;;;;;;0.90;0.90;;;26.30;99.90;;;;;;4973012;28;20464;-68
2023/07/14 15:59:41;;;;;;;1.33;1.30;;;26.30;99.90;;;;;;4973280;28;20466;-68
2023/07/14 16:02:13;;;;;;;1.47;1.47;;;26.30;99.90;;;;;;4973258;28;20495;-68
2023/07/14 16:04:40;;;;;;;1.00;1.00;;;26.20;99.90;;;;;;4971569;28;20836;-68
2023/07/14 16:07:11;;;;;;;2.30;2.10;;;26.20;99.90;;;;;;4972482;28;20578;-68
2023/07/14 16:09:39;;;;;;;2.00;1.60;;;26.20;99.90;;;;;;4972994;28;20493;-68
2023/07/14 16:12:09;;;;;;;1.57;1.57;;;26.10;99.90;;;;;;4973165;28;20489;-68
2023/07/14 16:14:37;;;;;;;1.50;1.40;;;26.10;99.90;;;;;;4972693;28;20464;-68
2023/07/14 16:17:05;;;;;;;1.10;1.10;;;26.10;99.90;;;;;;4973202;28;20543;-67
2023/07/14 16:19:31;;;;;;;1.30;1.30;;;26.00;99.90;;;;;;4973283;28;20488;-68
2023/07/14 16:21:58;;;;;;;1.27;1.27;;;26.00;99.90;;;;;;4972411;28;20743;-67
2023/07/14 16:24:34;;;;;;;1.67;1.57;;;26.00;99.90;;;;;;4972577;28;20918;-67
2023/07/14 16:27:01;;;;;;;1.00;1.00;;;25.90;99.90;;;;;;4972715;28;20472;-67
2023/07/14 16:29:27;;;;;;;1.47;1.47;;;25.80;99.90;;;;;;4973436;28;20491;-67
2023/07/14 16:31:56;;;;;;;1.17;1.17;;;25.80;99.90;;;;;;4973002;28;20895;-68
2023/07/14 16:34:23;;;;;;;1.27;1.27;;;25.70;99.90;;;;;;4971752;28;20954;-67
2023/07/14 16:36:49;;;;;;;1.33;1.33;;;25.60;99.90;;;;;;4971886;28;20475;-68
2023/07/14 16:39:23;;;;;;;1.03;0.97;;;25.60;99.90;;;;;;4972875;28;20468;-68
2023/07/14 16:41:50;;;;;;;1.40;1.40;;;25.50;99.90;;;;;;4973378;28;20487;-67
2023/07/14 16:44:17;;;;;;;1.20;1.20;;;25.60;99.90;;;;;;4971473;28;20466;-68
2023/07/14 16:46:53;;;;;;;1.93;1.83;;;25.60;99.90;;;;;;4972796;28;20493;-68
2023/07/14 16:49:21;;;;;;;1.10;1.10;;;25.60;99.90;;;;;;4972072;28;20916;-68
2023/07/14 16:51:49;;;;;;;1.53;1.50;;;25.60;99.90;;;;;;4972021;28;20499;-68
2023/07/14 16:54:24;;;;;;;1.43;1.43;;;25.60;99.90;;;;;;4972072;28;20578;-68
2023/07/14 16:56:51;;;;;;;1.13;1.13;;;25.70;99.90;;;;;;4972009;28;20477;-67
2023/07/14 16:59:18;;;;;;;1.50;1.50;;;25.60;99.90;;;;;;4972493;28;20802;-67
2023/07/14 17:01:45;;;;;;;1.00;1.00;;;25.60;99.90;;;;;;4971593;28;20528;-67
2023/07/14 17:04:15;;;;;;;1.00;1.00;;;25.50;99.90;;;;;;4971563;28;20518;-68
2023/07/14 17:06:43;;;;;;;1.87;1.77;;;25.40;99.90;;;;;;4971575;28;20589;-67